Time;durP1;ratioP1;P1;durP2;ratioP2;P2;SDS_P1;SDS_P2;PMS_P1;PMS_P2;Temp;Humidity;BMP_temperature;BMP_pressure;BME280_temperature;BME280_humidity;BME280_pressure;Samples;Min_cycle;Max_cycle;Signal;HPM_P1;HPM_P2
2023/05/18 00:02:04;;;;;;;6.50;5.20;;;;;;;8.22;100.00;97137.24;109194;1269;22508;-80
2023/05/18 00:04:37;;;;;;;6.00;4.80;;;;;;;8.23;100.00;97135.94;109225;1272;22520;-80
2023/05/18 00:07:08;;;;;;;6.90;4.40;;;;;;;8.25;100.00;97136.23;109132;1272;22542;-80
2023/05/18 00:09:40;;;;;;;6.40;4.60;;;;;;;8.26;100.00;97138.18;109201;1272;22522;-80
2023/05/18 00:12:11;;;;;;;6.00;4.20;;;;;;;8.27;100.00;97135.80;109149;1269;24930;-80
2023/05/18 00:14:42;;;;;;;4.80;3.70;;;;;;;8.28;100.00;97131.80;109157;1272;22517;-80
2023/05/18 00:17:14;;;;;;;6.30;4.10;;;;;;;8.26;100.00;97135.16;109186;1269;24183;-80
2023/05/18 00:19:46;;;;;;;5.60;4.50;;;;;;;8.26;100.00;97134.38;109196;1269;22659;-80
2023/05/18 00:22:18;;;;;;;5.00;4.20;;;;;;;8.26;100.00;97137.76;109180;1266;23202;-80
2023/05/18 00:24:49;;;;;;;4.50;4.00;;;;;;;8.25;100.00;97133.48;109226;1269;25021;-80
2023/05/18 00:27:20;;;;;;;6.40;5.00;;;;;;;8.23;100.00;97136.05;109177;1266;23807;-80
2023/05/18 00:29:51;;;;;;;7.20;4.90;;;;;;;8.21;100.00;97133.70;109160;1269;22534;-80
2023/05/18 00:32:22;;;;;;;6.70;5.20;;;;;;;8.18;100.00;97135.16;109138;1272;23919;-80
2023/05/18 00:34:53;;;;;;;7.90;5.60;;;;;;;8.19;100.00;97131.52;109152;1272;25400;-80
2023/05/18 00:37:24;;;;;;;7.60;6.10;;;;;;;8.18;100.00;97129.23;109161;1272;22620;-80
2023/05/18 00:39:54;;;;;;;8.30;6.20;;;;;;;8.17;100.00;97133.23;109142;1272;24161;-80
2023/05/18 00:42:25;;;;;;;8.90;6.30;;;;;;;8.17;100.00;97131.83;109166;1265;23055;-80
2023/05/18 00:44:56;;;;;;;8.60;6.30;;;;;;;8.17;100.00;97131.82;109139;1272;22522;-80
2023/05/18 00:47:27;;;;;;;8.60;6.20;;;;;;;8.19;100.00;97128.30;109132;1272;24186;-80
2023/05/18 00:49:58;;;;;;;9.20;6.30;;;;;;;8.22;100.00;97130.02;109164;1250;22552;-80
2023/05/18 00:52:31;;;;;;;7.80;6.20;;;;;;;8.23;100.00;97131.39;109165;1272;23869;-80
2023/05/18 00:55:03;;;;;;;8.30;5.80;;;;;;;8.24;100.00;97131.35;109182;1272;22466;-80
2023/05/18 00:57:35;;;;;;;7.20;5.90;;;;;;;8.24;100.00;97131.30;109004;1273;234705;-80
2023/05/18 01:00:09;;;;;;;9.20;6.30;;;;;;;8.24;100.00;97135.36;109207;1273;24170;-80
2023/05/18 01:02:44;;;;;;;8.60;6.50;;;;;;;8.25;100.00;97137.54;109119;1273;22644;-80
2023/05/18 01:05:16;;;;;;;8.30;6.50;;;;;;;8.26;100.00;97138.92;109044;1273;23782;-80
2023/05/18 01:07:49;;;;;;;8.90;6.00;;;;;;;8.26;100.00;97139.08;109125;1269;22843;-80
2023/05/18 01:10:21;;;;;;;6.90;5.90;;;;;;;8.26;100.00;97142.30;109092;1273;25038;-80
2023/05/18 01:12:58;;;;;;;7.20;6.40;;;;;;;8.27;100.00;97138.45;109032;1272;22479;-80
2023/05/18 01:15:34;;;;;;;8.90;6.60;;;;;;;8.30;100.00;97143.07;109032;1275;24307;-80
2023/05/18 01:18:13;;;;;;;7.70;6.40;;;;;;;8.31;100.00;97144.42;109075;1274;22645;-80
2023/05/18 01:20:49;;;;;;;8.90;6.60;;;;;;;8.31;100.00;97146.42;109057;1272;22469;-80
2023/05/18 01:23:59;;;;;;;9.10;6.90;;;;;;;8.28;100.00;97145.86;109074;1273;22530;-80
2023/05/18 01:26:36;;;;;;;10.50;6.90;;;;;;;8.25;100.00;97150.58;109104;1274;22518;-80
2023/05/18 01:29:10;;;;;;;11.50;7.50;;;;;;;8.21;100.00;97149.97;109115;1274;23816;-80
2023/05/18 01:31:41;;;;;;;9.00;7.10;;;;;;;8.15;100.00;97153.70;109065;1274;24318;-80
2023/05/18 01:34:12;;;;;;;9.40;7.50;;;;;;;8.12;100.00;97147.06;109101;1273;24244;-80
2023/05/18 01:36:43;;;;;;;11.00;8.40;;;;;;;8.07;100.00;97151.30;109074;1267;22721;-80
2023/05/18 01:39:14;;;;;;;11.20;8.30;;;;;;;8.02;100.00;97146.60;109050;1270;22566;-80
2023/05/18 01:41:51;;;;;;;12.20;8.30;;;;;;;8.04;100.00;97147.80;109076;1274;22552;-80
2023/05/18 01:44:29;;;;;;;10.90;8.70;;;;;;;8.06;100.00;97148.71;109133;1272;23257;-80
2023/05/18 01:47:04;;;;;;;10.60;8.40;;;;;;;8.07;100.00;97150.77;109114;1273;22639;-80
2023/05/18 01:49:38;;;;;;;9.90;7.10;;;;;;;8.08;100.00;97153.21;109123;1270;25258;-80
2023/05/18 01:52:14;;;;;;;7.90;6.00;;;;;;;8.05;100.00;97153.83;109163;1273;24173;-81
2023/05/18 01:54:50;;;;;;;7.90;5.90;;;;;;;8.04;100.00;97154.04;109230;1273;22473;-80
2023/05/18 01:57:25;;;;;;;6.60;5.50;;;;;;;8.05;100.00;97148.60;109146;1268;24221;-80
2023/05/18 01:59:58;;;;;;;7.90;5.40;;;;;;;8.05;100.00;97146.27;109216;1272;22544;-80
2023/05/18 02:02:30;;;;;;;5.40;4.40;;;;;;;8.04;100.00;97143.95;109157;1266;24346;-80
2023/05/18 02:05:01;;;;;;;4.60;3.90;;;;;;;8.05;100.00;97148.02;109195;1272;22591;-80
2023/05/18 02:07:32;;;;;;;4.40;3.80;;;;;;;8.06;100.00;97146.13;109204;1269;25408;-80
2023/05/18 02:10:03;;;;;;;4.90;4.10;;;;;;;8.08;100.00;97149.68;109157;1272;22521;-80
2023/05/18 02:12:34;;;;;;;5.40;4.00;;;;;;;8.12;100.00;97148.55;109122;1272;22586;-80
2023/05/18 02:15:06;;;;;;;4.90;3.60;;;;;;;8.13;100.00;97146.80;109166;1266;22495;-80
2023/05/18 02:17:37;;;;;;;5.30;4.00;;;;;;;8.10;100.00;97146.64;109204;1272;22537;-80
2023/05/18 02:20:10;;;;;;;4.10;3.30;;;;;;;8.14;100.00;97149.45;109206;1270;23785;-80
2023/05/18 02:22:41;;;;;;;4.30;3.60;;;;;;;8.15;100.00;97146.73;109124;1269;24307;-80
2023/05/18 02:25:12;;;;;;;4.90;3.80;;;;;;;8.16;100.00;97143.58;109180;1272;22568;-80
2023/05/18 02:27:43;;;;;;;3.60;3.10;;;;;;;8.17;100.00;97142.77;109145;1272;23721;-80
2023/05/18 02:30:15;;;;;;;4.20;3.40;;;;;;;8.17;100.00;97146.13;109183;1272;23282;-80
2023/05/18 02:32:48;;;;;;;3.70;2.90;;;;;;;8.16;100.00;97149.88;109201;1272;25412;-80
2023/05/18 02:35:19;;;;;;;4.20;2.60;;;;;;;8.16;100.00;97152.67;109157;1272;22465;-80
2023/05/18 02:37:50;;;;;;;4.10;3.10;;;;;;;8.17;100.00;97152.27;109205;1269;22558;-80
2023/05/18 02:40:21;;;;;;;2.70;2.30;;;;;;;8.16;100.00;97153.14;109148;1273;23929;-80
2023/05/18 02:42:52;;;;;;;3.80;2.50;;;;;;;8.15;100.00;97151.73;109188;1272;22483;-80
2023/05/18 02:45:23;;;;;;;2.50;2.30;;;;;;;8.14;100.00;97152.90;109179;1249;22518;-80
2023/05/18 02:47:54;;;;;;;2.40;2.20;;;;;;;8.13;100.00;97158.86;109169;1272;23928;-80
2023/05/18 02:50:25;;;;;;;2.70;2.50;;;;;;;8.13;100.00;97156.11;109203;1270;22524;-80
2023/05/18 02:52:55;;;;;;;2.50;2.30;;;;;;;8.13;100.00;97161.39;109146;1272;22537;-80
2023/05/18 02:55:27;;;;;;;2.60;2.20;;;;;;;8.12;100.00;97164.45;109172;1262;22525;-80
2023/05/18 02:57:58;;;;;;;2.60;2.20;;;;;;;8.14;100.00;97166.79;109128;1266;23924;-80
2023/05/18 03:00:30;;;;;;;3.10;2.60;;;;;;;8.14;100.00;97165.94;109191;1272;22523;-80
2023/05/18 03:03:01;;;;;;;3.40;2.40;;;;;;;8.12;100.00;97166.02;109151;1272;22486;-80
2023/05/18 03:05:32;;;;;;;3.00;2.70;;;;;;;8.12;100.00;97168.83;109162;1272;23755;-80
2023/05/18 03:08:03;;;;;;;3.00;2.70;;;;;;;8.11;100.00;97170.45;109226;1272;25394;-80
2023/05/18 03:10:35;;;;;;;3.20;2.90;;;;;;;8.11;100.00;97177.74;109187;1273;22515;-80
2023/05/18 03:13:06;;;;;;;4.10;2.90;;;;;;;8.10;100.00;97179.38;109205;1272;22641;-80
2023/05/18 03:15:38;;;;;;;3.00;2.70;;;;;;;8.11;100.00;97184.52;109188;1272;23263;-80
2023/05/18 03:18:09;;;;;;;3.70;3.00;;;;;;;8.13;100.00;97188.27;109192;1265;22480;-80
2023/05/18 03:20:40;;;;;;;3.80;3.10;;;;;;;8.12;100.00;97186.27;109222;1272;22586;-80
2023/05/18 03:23:11;;;;;;;2.80;2.60;;;;;;;8.10;100.00;97187.30;109168;1272;23663;-80
2023/05/18 03:25:42;;;;;;;2.80;2.60;;;;;;;8.09;100.00;97190.09;109186;1272;24213;-80
2023/05/18 03:28:12;;;;;;;3.50;2.90;;;;;;;8.08;100.00;97189.98;109215;1269;22517;-80
2023/05/18 03:30:43;;;;;;;4.10;3.20;;;;;;;8.08;100.00;97196.52;109154;1270;24244;-80
2023/05/18 03:33:14;;;;;;;4.00;3.00;;;;;;;8.06;100.00;97195.61;109171;1270;22453;-80
2023/05/18 03:35:45;;;;;;;3.90;3.50;;;;;;;8.05;100.00;97197.66;109195;1271;22526;-80
2023/05/18 03:38:16;;;;;;;3.70;3.30;;;;;;;8.06;100.00;97201.84;109183;1267;22527;-80
2023/05/18 03:40:47;;;;;;;3.60;3.10;;;;;;;8.08;100.00;97207.62;109177;1267;22531;-81
2023/05/18 03:43:18;;;;;;;4.80;3.60;;;;;;;8.12;100.00;97207.02;109160;1267;22623;-80
2023/05/18 03:45:49;;;;;;;3.50;2.70;;;;;;;8.15;100.00;97209.67;109132;1273;23846;-81
2023/05/18 03:48:20;;;;;;;2.90;2.60;;;;;;;8.14;100.00;97213.11;109224;1272;22543;-80
2023/05/18 03:50:51;;;;;;;3.00;2.70;;;;;;;8.13;100.00;97212.84;109138;1250;22465;-80
2023/05/18 03:53:22;;;;;;;3.10;2.80;;;;;;;8.13;100.00;97212.98;109163;1272;22939;-80
2023/05/18 03:55:53;;;;;;;2.90;2.70;;;;;;;8.13;100.00;97219.33;109166;1272;22521;-80
2023/05/18 03:58:24;;;;;;;2.60;2.30;;;;;;;8.13;100.00;97222.13;109206;1272;22632;-80
2023/05/18 04:00:55;;;;;;;2.40;2.10;;;;;;;8.15;100.00;97224.16;109149;1270;23122;-80
2023/05/18 04:03:26;;;;;;;2.00;1.80;;;;;;;8.17;100.00;97229.17;109160;1272;22545;-80
2023/05/18 04:05:57;;;;;;;1.80;1.50;;;;;;;8.18;100.00;97232.30;109185;1272;22549;-80
2023/05/18 04:08:29;;;;;;;1.50;1.40;;;;;;;8.20;100.00;97233.53;109196;1251;22554;-80
2023/05/18 04:11:00;;;;;;;1.70;1.60;;;;;;;8.21;100.00;97236.81;109138;1250;22452;-81
2023/05/18 04:13:31;;;;;;;1.60;1.50;;;;;;;8.19;100.00;97238.65;109162;1272;22456;-80
2023/05/18 04:16:03;;;;;;;1.50;1.40;;;;;;;8.19;100.00;97237.80;109144;1272;25268;-80
2023/05/18 04:18:35;;;;;;;3.20;1.60;;;;;;;8.19;100.00;97239.02;109159;1272;22638;-81
2023/05/18 04:21:06;;;;;;;2.20;2.00;;;;;;;8.21;100.00;97243.73;109162;1272;22511;-80
2023/05/18 04:23:37;;;;;;;1.80;1.60;;;;;;;8.22;100.00;97244.38;109180;1267;23723;-80
2023/05/18 04:26:09;;;;;;;1.80;1.60;;;;;;;8.22;100.00;97246.86;109172;1272;24370;-80
2023/05/18 04:28:42;;;;;;;2.00;1.70;;;;;;;8.18;100.00;97254.11;109191;1272;24213;-80
2023/05/18 04:31:13;;;;;;;4.90;2.60;;;;;;;8.17;100.00;97262.02;109190;1270;22703;-80
2023/05/18 04:33:45;;;;;;;5.70;3.50;;;;;;;8.09;100.00;97270.31;109143;1266;23243;-80
2023/05/18 04:36:18;;;;;;;6.70;4.20;;;;;;;7.93;100.00;97276.82;109159;1251;22527;-81
2023/05/18 04:38:50;;;;;;;8.40;4.80;;;;;;;7.76;100.00;97285.30;109197;1272;25300;-80
2023/05/18 04:41:21;;;;;;;11.60;5.10;;;;;;;7.62;100.00;97292.96;109155;1272;22526;-80
2023/05/18 04:43:52;;;;;;;11.10;4.80;;;;;;;7.53;100.00;97293.11;109136;1272;22709;-80
2023/05/18 04:46:23;;;;;;;8.20;4.70;;;;;;;7.45;100.00;97298.95;109134;1272;22494;-80
2023/05/18 04:48:56;;;;;;;9.90;5.00;;;;;;;7.39;100.00;97301.08;109151;1267;22817;-80
2023/05/18 04:51:27;;;;;;;11.60;4.70;;;;;;;7.37;100.00;97305.37;109195;1272;22451;-80
2023/05/18 04:53:59;;;;;;;8.30;5.10;;;;;;;7.35;100.00;97305.71;109129;1272;23868;-80
2023/05/18 04:56:31;;;;;;;10.80;4.80;;;;;;;7.31;100.00;97309.87;109182;1267;25262;-80
2023/05/18 04:59:04;;;;;;;7.70;4.30;;;;;;;7.26;100.00;97307.93;109085;1267;23872;-80
2023/05/18 05:01:36;;;;;;;7.40;4.10;;;;;;;7.18;100.00;97310.02;109160;1272;22706;-80
2023/05/18 05:04:07;;;;;;;10.70;4.20;;;;;;;7.14;100.00;97315.22;109153;1266;22550;-80
2023/05/18 05:06:39;;;;;;;8.70;4.30;;;;;;;7.11;100.00;97314.28;109189;1272;23984;-80
2023/05/18 05:09:12;;;;;;;10.50;4.20;;;;;;;7.10;100.00;97318.33;109148;1272;22702;-80
2023/05/18 05:11:43;;;;;;;11.30;4.30;;;;;;;7.05;100.00;97321.94;109188;1272;22581;-80
2023/05/18 05:14:15;;;;;;;8.50;4.20;;;;;;;7.00;100.00;97324.63;109140;1272;22634;-80
2023/05/18 05:16:46;;;;;;;12.50;4.40;;;;;;;6.99;100.00;97330.85;109164;1272;24313;-80
2023/05/18 05:19:17;;;;;;;8.60;4.00;;;;;;;6.98;100.00;97329.41;109174;1272;25483;-80
2023/05/18 05:21:48;;;;;;;10.30;3.70;;;;;;;6.99;100.00;97331.95;109178;1272;25414;-80
2023/05/18 05:24:19;;;;;;;7.80;3.60;;;;;;;6.95;100.00;97334.68;109184;1269;22546;-80
2023/05/18 05:26:50;;;;;;;8.20;3.80;;;;;;;6.94;100.00;97336.05;109195;1272;22586;-80
2023/05/18 05:29:21;;;;;;;6.70;4.00;;;;;;;6.95;100.00;97332.20;109174;1266;23888;-80
2023/05/18 05:31:52;;;;;;;10.70;4.60;;;;;;;6.95;100.00;97335.46;109169;1272;24343;-80
2023/05/18 05:34:23;;;;;;;7.80;4.40;;;;;;;6.99;100.00;97333.70;109117;1272;22511;-80
2023/05/18 05:36:55;;;;;;;9.60;3.70;;;;;;;7.03;100.00;97335.81;109182;1272;22521;-80
2023/05/18 05:39:26;;;;;;;8.50;4.10;;;;;;;7.06;100.00;97339.93;109132;1266;25304;-80
2023/05/18 05:41:57;;;;;;;8.20;3.90;;;;;;;7.08;100.00;97337.23;109137;1272;22452;-80
2023/05/18 05:44:28;;;;;;;12.00;4.00;;;;;;;7.06;100.00;97338.63;109116;1267;22563;-80
2023/05/18 05:46:58;;;;;;;10.80;4.20;;;;;;;7.07;100.00;97341.75;109153;1272;22661;-80
2023/05/18 05:49:29;;;;;;;6.70;3.70;;;;;;;7.09;100.00;97337.41;109198;1272;24241;-80
2023/05/18 05:52:00;;;;;;;9.20;4.40;;;;;;;7.07;100.00;97342.01;109201;1272;22285;-80
2023/05/18 05:54:31;;;;;;;9.10;3.80;;;;;;;7.06;100.00;97345.42;109209;1272;22619;-80
2023/05/18 05:57:02;;;;;;;8.60;4.10;;;;;;;7.06;100.00;97345.05;109116;1272;22670;-81
2023/05/18 05:59:33;;;;;;;7.80;3.70;;;;;;;7.04;100.00;97349.73;109153;1270;22472;-80
2023/05/18 06:02:04;;;;;;;10.50;4.30;;;;;;;7.05;100.00;97350.24;109137;1272;22516;-80
2023/05/18 06:04:35;;;;;;;7.80;4.40;;;;;;;7.07;100.00;97350.88;109169;1272;22562;-80
2023/05/18 06:07:06;;;;;;;11.50;4.30;;;;;;;7.06;100.00;97353.39;109216;1272;25461;-80
2023/05/18 06:09:37;;;;;;;7.70;4.00;;;;;;;7.07;100.00;97354.09;109196;1266;23795;-80
2023/05/18 06:12:09;;;;;;;11.20;4.30;;;;;;;7.07;100.00;97357.98;109150;1272;23889;-80
2023/05/18 06:14:40;;;;;;;8.40;4.20;;;;;;;7.10;100.00;97357.26;109174;1250;24211;-80
2023/05/18 06:17:11;;;;;;;9.20;3.70;;;;;;;7.12;100.00;97355.70;109198;1272;22465;-80
2023/05/18 06:19:42;;;;;;;10.00;5.40;;;;;;;7.13;100.00;97357.08;109136;1266;23050;-80
2023/05/18 06:22:13;;;;;;;10.40;4.50;;;;;;;7.11;100.00;97358.63;109189;1266;22514;-80
2023/05/18 06:24:44;;;;;;;8.90;4.20;;;;;;;7.10;100.00;97361.56;109148;1272;24208;-80
2023/05/18 06:27:15;;;;;;;8.10;4.20;;;;;;;7.06;100.00;97362.09;109171;1272;25266;-80
2023/05/18 06:29:46;;;;;;;7.90;4.00;;;;;;;7.06;100.00;97366.93;109184;1269;22519;-81
2023/05/18 06:32:17;;;;;;;11.70;4.70;;;;;;;7.09;100.00;97370.84;109153;1272;22477;-80
2023/05/18 06:34:49;;;;;;;8.70;3.80;;;;;;;7.11;100.00;97371.66;109182;1266;22518;-80
2023/05/18 06:37:20;;;;;;;8.30;4.20;;;;;;;7.11;100.00;97371.51;109121;1265;22558;-80
2023/05/18 06:39:51;;;;;;;9.40;3.80;;;;;;;7.10;100.00;97376.23;109186;1272;22694;-80
2023/05/18 06:42:22;;;;;;;12.60;4.50;;;;;;;7.09;100.00;97378.58;109168;1269;22520;-80
2023/05/18 06:44:53;;;;;;;7.80;3.90;;;;;;;7.09;100.00;97378.70;109155;1272;22638;-80
2023/05/18 06:47:24;;;;;;;8.30;4.10;;;;;;;7.11;100.00;97383.36;109143;1266;24304;-80
2023/05/18 06:49:55;;;;;;;9.70;3.90;;;;;;;7.10;100.00;97382.09;109164;1271;25432;-80
2023/05/18 06:52:26;;;;;;;11.00;4.70;;;;;;;7.12;100.00;97381.91;109241;1269;22516;-80
2023/05/18 06:54:58;;;;;;;7.80;3.80;;;;;;;7.17;100.00;97385.21;109196;1272;22518;-80
2023/05/18 06:57:30;;;;;;;7.40;3.80;;;;;;;7.22;100.00;97388.09;109209;1250;22565;-80
2023/05/18 07:00:05;;;;;;;9.00;4.50;;;;;;;7.23;100.00;97391.43;109202;1272;22536;-80
2023/05/18 07:02:37;;;;;;;7.40;4.30;;;;;;;7.23;100.00;97395.48;109210;1272;22483;-80
2023/05/18 07:05:09;;;;;;;9.10;5.20;;;;;;;7.26;100.00;97394.59;109204;1272;22465;-80
2023/05/18 07:07:41;;;;;;;9.90;4.50;;;;;;;7.28;100.00;97399.11;109183;1272;22466;-81
2023/05/18 07:10:13;;;;;;;8.60;4.00;;;;;;;7.29;100.00;97400.60;109157;1267;22517;-80
2023/05/18 07:12:44;;;;;;;7.00;3.10;;;;;;;7.33;100.00;97400.41;109184;1272;23993;-80
2023/05/18 07:15:15;;;;;;;4.50;2.70;;;;;;;7.32;100.00;97404.61;109195;1272;25442;-80
2023/05/18 07:17:46;;;;;;;3.80;2.30;;;;;;;7.30;100.00;97407.89;109176;1266;22998;-80
2023/05/18 07:20:18;;;;;;;4.60;2.30;;;;;;;7.27;100.00;97405.57;109190;1272;22567;-80
2023/05/18 07:22:49;;;;;;;6.60;2.60;;;;;;;7.25;100.00;97406.92;109158;1269;24240;-80
2023/05/18 07:25:21;;;;;;;5.40;2.40;;;;;;;7.29;100.00;97407.03;109210;1269;22666;-80
2023/05/18 07:27:53;;;;;;;6.60;3.20;;;;;;;7.34;100.00;97409.52;109152;1272;23817;-80
2023/05/18 07:30:25;;;;;;;6.20;2.80;;;;;;;7.34;100.00;97409.89;109148;1272;22533;-80
2023/05/18 07:32:57;;;;;;;6.60;2.90;;;;;;;7.41;100.00;97411.77;109161;1272;25990;-80
2023/05/18 07:35:28;;;;;;;6.70;2.70;;;;;;;7.42;100.00;97411.02;109181;1272;22533;-81
2023/05/18 07:37:59;;;;;;;7.20;3.10;;;;;;;7.40;100.00;97412.20;109210;1262;23702;-80
2023/05/18 07:40:31;;;;;;;6.50;2.90;;;;;;;7.38;100.00;97410.64;109101;1272;22475;-80
2023/05/18 07:43:02;;;;;;;5.60;2.40;;;;;;;7.30;100.00;97414.81;109188;1272;23991;-80
2023/05/18 07:45:33;;;;;;;6.10;3.00;;;;;;;7.12;100.00;97418.14;109196;1272;22493;-80
2023/05/18 07:48:04;;;;;;;8.00;2.90;;;;;;;6.97;100.00;97419.01;109175;1272;22648;-80
2023/05/18 07:50:35;;;;;;;5.90;2.60;;;;;;;6.79;100.00;97415.97;109128;1269;22517;-80
2023/05/18 07:53:06;;;;;;;5.50;2.70;;;;;;;6.61;100.00;97419.71;109184;1270;22543;-80
2023/05/18 07:55:37;;;;;;;5.30;2.70;;;;;;;6.43;100.00;97422.20;109182;1266;22560;-80
2023/05/18 07:58:09;;;;;;;10.30;2.80;;;;;;;6.38;100.00;97427.83;109140;1272;23287;-80
2023/05/18 08:00:40;;;;;;;4.90;2.80;;;;;;;6.34;100.00;97422.64;109112;1272;22532;-81
2023/05/18 08:03:11;;;;;;;6.60;3.40;;;;;;;6.35;100.00;97423.41;109144;1272;23381;-80
2023/05/18 08:05:42;;;;;;;3.70;2.60;;;;;;;6.38;100.00;97422.95;109146;1272;22576;-81
2023/05/18 08:08:14;;;;;;;3.90;2.10;;;;;;;6.44;100.00;97424.73;109210;1272;24217;-81
2023/05/18 08:10:45;;;;;;;3.70;2.30;;;;;;;6.42;100.00;97424.86;109120;1272;24363;-80
2023/05/18 08:13:16;;;;;;;5.30;2.80;;;;;;;6.41;100.00;97422.73;109171;1266;22650;-80
2023/05/18 08:15:47;;;;;;;7.00;3.00;;;;;;;6.42;100.00;97417.08;109136;1272;22518;-80
2023/05/18 08:18:18;;;;;;;6.00;2.90;;;;;;;6.53;100.00;97418.36;109186;1269;22559;-80
2023/05/18 08:20:52;;;;;;;5.80;2.80;;;;;;;6.55;100.00;97422.77;109187;1272;22582;-80
2023/05/18 08:23:23;;;;;;;6.20;2.90;;;;;;;6.49;100.00;97421.58;109177;1267;25404;-80
2023/05/18 08:25:55;;;;;;;6.30;3.40;;;;;;;6.55;100.00;97424.29;109178;1249;22503;-80
2023/05/18 08:28:26;;;;;;;6.40;3.30;;;;;;;6.62;100.00;97425.08;109228;1266;24343;-81
2023/05/18 08:30:58;;;;;;;6.80;3.70;;;;;;;6.56;100.00;97427.42;109169;1272;22462;-80
2023/05/18 08:33:28;;;;;;;6.60;3.20;;;;;;;6.56;100.00;97430.00;109151;1272;22781;-80
2023/05/18 08:36:00;;;;;;;3.70;2.20;;;;;;;6.69;100.00;97428.58;109211;1272;22589;-80
2023/05/18 08:38:31;;;;;;;7.10;3.60;;;;;;;6.76;100.00;97429.77;109135;1272;22518;-80
2023/05/18 08:41:08;;;;;;;3.90;3.10;;;;;;;6.75;100.00;97431.29;109174;1272;24380;-80
2023/05/18 08:43:43;;;;;;;4.40;2.90;;;;;;;6.82;100.00;97431.91;109124;1272;23128;-80
2023/05/18 08:46:20;;;;;;;7.20;2.90;;;;;;;6.95;100.00;97429.83;109168;1266;22510;-80
2023/05/18 08:48:54;;;;;;;5.00;2.20;;;;;;;7.09;100.00;97431.84;109143;1272;22708;-80
2023/05/18 08:51:28;;;;;;;6.30;3.00;;;;;;;7.20;100.00;97434.77;109214;1265;22518;-80
2023/05/18 08:54:00;;;;;;;6.80;2.70;;;;;;;7.30;100.00;97437.55;109196;1272;22549;-80
2023/05/18 08:56:33;;;;;;;6.50;2.80;;;;;;;7.37;100.00;97436.36;109150;1269;22773;-80
2023/05/18 08:59:07;;;;;;;6.90;2.90;;;;;;;7.43;100.00;97433.83;109156;1266;25261;-80
2023/05/18 09:01:38;;;;;;;7.00;3.40;;;;;;;7.51;100.00;97433.39;109160;1266;23818;-79
2023/05/18 09:04:11;;;;;;;5.70;2.40;;;;;;;7.55;100.00;97430.75;109140;1268;23160;-80
2023/05/18 09:06:42;;;;;;;5.70;2.70;;;;;;;7.55;100.00;97430.95;109148;1265;23754;-80
2023/05/18 09:09:14;;;;;;;4.30;2.50;;;;;;;7.63;100.00;97429.95;109206;1272;23868;-80
2023/05/18 09:11:47;;;;;;;6.00;2.60;;;;;;;7.67;100.00;97431.96;109182;1250;22515;-80
2023/05/18 09:14:18;;;;;;;5.70;2.60;;;;;;;7.72;100.00;97431.77;109151;1273;22713;-80
2023/05/18 09:16:49;;;;;;;7.60;3.00;;;;;;;7.89;100.00;97433.04;109159;1254;22510;-80
2023/05/18 09:19:20;;;;;;;5.30;2.20;;;;;;;8.04;100.00;97433.70;109167;1272;24218;-80
2023/05/18 09:21:51;;;;;;;4.40;2.60;;;;;;;8.17;100.00;97428.88;109185;1272;22466;-80
2023/05/18 09:24:23;;;;;;;5.80;2.20;;;;;;;8.26;100.00;97424.77;109192;1266;22469;-80
2023/05/18 09:26:54;;;;;;;3.70;2.40;;;;;;;8.36;100.00;97427.21;109175;1272;22476;-80
2023/05/18 09:29:25;;;;;;;5.30;2.20;;;;;;;8.47;100.00;97423.45;109166;1262;23661;-80
2023/05/18 09:31:56;;;;;;;4.20;1.80;;;;;;;8.55;100.00;97423.99;109185;1272;24248;-80
2023/05/18 09:34:41;;;;;;;3.70;2.10;;;;;;;8.71;100.00;97422.91;109178;1266;22544;-80
2023/05/18 09:37:15;;;;;;;4.60;2.30;;;;;;;8.83;100.00;97424.90;109193;1272;25068;-80
2023/05/18 09:39:57;;;;;;;5.00;1.90;;;;;;;8.79;100.00;97426.98;109153;1266;23837;-80
2023/05/18 09:42:37;;;;;;;6.60;3.30;;;;;;;8.77;100.00;97421.83;109212;1266;22459;-80
2023/05/18 09:45:18;;;;;;;5.00;2.00;;;;;;;8.76;100.00;97425.31;109217;1272;22514;-80
2023/05/18 09:47:51;;;;;;;3.30;1.80;;;;;;;8.73;100.00;97425.27;109181;1272;22583;-80
2023/05/18 09:50:23;;;;;;;3.10;1.80;;;;;;;8.70;100.00;97422.48;109116;1266;22514;-80
2023/05/18 09:52:56;;;;;;;3.50;1.80;;;;;;;8.64;100.00;97424.90;109179;1269;22480;-80
2023/05/18 09:55:27;;;;;;;4.40;1.90;;;;;;;8.57;100.00;97426.64;109215;1272;22603;-80
2023/05/18 09:58:01;;;;;;;3.60;1.70;;;;;;;8.51;100.00;97429.65;109178;1272;25415;-80
2023/05/18 10:00:37;;;;;;;6.10;2.50;;;;;;;8.47;100.00;97432.77;109136;1272;24244;-80
2023/05/18 10:03:18;;;;;;;3.70;2.20;;;;;;;8.42;100.00;97430.31;109157;1265;24388;-80
2023/05/18 10:05:50;;;;;;;4.40;1.70;;;;;;;8.36;100.00;97433.50;109159;1272;22830;-80
2023/05/18 10:08:21;;;;;;;3.10;1.60;;;;;;;8.31;100.00;97435.64;109181;1272;22594;-80
2023/05/18 10:10:52;;;;;;;4.90;2.20;;;;;;;8.22;100.00;97436.08;109174;1266;22488;-80
2023/05/18 10:13:27;;;;;;;3.80;2.00;;;;;;;8.15;100.00;97438.08;109209;1265;22531;-80
2023/05/18 10:16:00;;;;;;;4.00;1.60;;;;;;;8.11;99.98;97439.92;109156;1272;22513;-80
2023/05/18 10:18:32;;;;;;;6.10;2.10;;;;;;;8.08;99.99;97441.80;109181;1266;24421;-80
2023/05/18 10:21:05;;;;;;;5.80;1.80;;;;;;;8.09;99.97;97441.33;109099;1272;22516;-80
2023/05/18 10:23:37;;;;;;;3.90;1.70;;;;;;;8.10;100.00;97443.84;109164;1273;22702;-80
2023/05/18 10:26:09;;;;;;;4.10;2.30;;;;;;;8.08;99.90;97445.39;109196;1266;22570;-80
2023/05/18 10:28:46;;;;;;;3.20;1.80;;;;;;;8.11;99.98;97449.28;109166;1272;22644;-80
2023/05/18 10:31:18;;;;;;;3.60;1.90;;;;;;;8.16;100.00;97446.94;109132;1272;22520;-80
2023/05/18 10:33:50;;;;;;;4.50;1.90;;;;;;;8.21;100.00;97453.23;109145;1272;24389;-80
2023/05/18 10:36:24;;;;;;;3.40;1.90;;;;;;;8.24;100.00;97450.06;109157;1272;22627;-80
2023/05/18 10:38:57;;;;;;;5.50;3.10;;;;;;;8.25;99.91;97450.86;109174;1272;22530;-80
2023/05/18 10:41:30;;;;;;;3.50;2.00;;;;;;;8.24;99.69;97453.02;109160;1266;22647;-80
2023/05/18 10:44:02;;;;;;;3.60;2.10;;;;;;;8.24;99.47;97453.70;109203;1272;22581;-80
2023/05/18 10:46:35;;;;;;;3.30;1.50;;;;;;;8.31;99.73;97452.17;109194;1268;22552;-80
2023/05/18 10:49:12;;;;;;;3.70;2.00;;;;;;;8.32;99.42;97453.84;109117;1272;25342;-80
2023/05/18 10:51:46;;;;;;;3.40;1.60;;;;;;;8.31;99.36;97450.75;109182;1272;25320;-80
2023/05/18 10:54:17;;;;;;;4.40;1.80;;;;;;;8.36;99.66;97454.74;109173;1272;25414;-80
2023/05/18 10:56:51;;;;;;;3.90;1.80;;;;;;;8.27;98.67;97458.41;109179;1272;22514;-80
2023/05/18 10:59:23;;;;;;;3.40;1.80;;;;;;;8.13;98.63;97456.80;109161;1266;54473;-80
2023/05/18 11:01:57;;;;;;;3.30;1.80;;;;;;;8.08;98.81;97459.38;109152;1270;22537;-80
2023/05/18 11:04:31;;;;;;;4.80;2.20;;;;;;;8.09;99.37;97458.60;109140;1273;22481;-80
2023/05/18 11:07:03;;;;;;;4.70;2.00;;;;;;;8.08;99.15;97456.69;109208;1266;22514;-80
2023/05/18 11:09:35;;;;;;;3.10;2.20;;;;;;;8.07;99.25;97453.77;109191;1272;22547;-80
2023/05/18 11:12:13;;;;;;;2.90;2.00;;;;;;;8.12;99.61;97452.73;109188;1272;22539;-80
2023/05/18 11:14:52;;;;;;;4.40;2.30;;;;;;;8.10;99.20;97454.08;109162;1266;22521;-80
2023/05/18 11:17:24;;;;;;;4.80;2.30;;;;;;;8.13;99.64;97454.80;109166;1250;23857;-80
2023/05/18 11:20:25;;;;;;;3.20;2.20;;;;;;;8.11;99.29;97454.26;109156;1273;25446;-80
2023/05/18 11:23:04;;;;;;;4.30;2.50;;;;;;;8.16;99.53;97460.23;109176;1272;25942;-80
2023/05/18 11:25:50;;;;;;;8.20;2.30;;;;;;;8.16;99.56;97463.77;109152;1266;23909;-80
2023/05/18 11:28:23;;;;;;;2.90;2.10;;;;;;;8.16;99.41;97463.34;109214;1266;22625;-80
2023/05/18 11:30:54;;;;;;;5.60;2.30;;;;;;;8.18;99.63;97465.19;109189;1272;22688;-80
2023/05/18 11:33:29;;;;;;;4.40;2.50;;;;;;;8.21;99.79;97461.86;109181;1266;24396;-80
2023/05/18 11:36:03;;;;;;;2.40;1.70;;;;;;;8.24;99.74;97465.85;109162;1267;22633;-80
2023/05/18 11:38:53;;;;;;;3.50;2.40;;;;;;;8.26;99.75;97466.67;109206;1273;23317;-80
2023/05/18 11:41:32;;;;;;;2.30;1.60;;;;;;;8.20;99.18;97462.20;109212;1272;22497;-80
2023/05/18 11:44:20;;;;;;;5.50;2.20;;;;;;;8.12;99.29;97463.70;109181;1266;22517;-80
2023/05/18 11:46:59;;;;;;;3.60;2.30;;;;;;;8.10;99.35;97463.38;109204;1272;22540;-80
2023/05/18 11:49:33;;;;;;;3.30;1.50;;;;;;;8.02;99.29;97467.05;109167;1269;22484;-80